sensor_id;sensor_type;location;lat;lon;timestamp;pressure;altitude;pressure_sealevel;temperature;humidity
40245;BME280;25963;42.694;23.600;2023-09-19T00:02:17;95615.06;;;18.63;79.63
40245;BME280;25963;42.694;23.600;2023-09-19T00:04:43;95611.72;;;18.73;79.09
40245;BME280;25963;42.694;23.600;2023-09-19T00:07:08;95606.47;;;18.56;79.35
40245;BME280;25963;42.694;23.600;2023-09-19T00:09:34;95597.09;;;18.54;78.77
40245;BME280;25963;42.694;23.600;2023-09-19T00:12:06;95621.44;;;18.57;78.72
40245;BME280;25963;42.694;23.600;2023-09-19T00:14:34;95621.25;;;18.64;78.81
40245;BME280;25963;42.694;23.600;2023-09-19T00:17:01;95601.38;;;18.17;80.39
40245;BME280;25963;42.694;23.600;2023-09-19T00:19:35;95602.31;;;18.01;82.99
40245;BME280;25963;42.694;23.600;2023-09-19T00:22:01;95619.75;;;18.14;83.00
40245;BME280;25963;42.694;23.600;2023-09-19T00:24:27;95626.63;;;18.05;84.23
40245;BME280;25963;42.694;23.600;2023-09-19T00:26:53;95599.63;;;17.52;86.04
40245;BME280;25963;42.694;23.600;2023-09-19T00:29:19;95582.75;;;17.46;86.41
40245;BME280;25963;42.694;23.600;2023-09-19T00:31:45;95594.78;;;17.49;87.20
40245;BME280;25963;42.694;23.600;2023-09-19T00:34:10;95604.75;;;17.58;86.77
40245;BME280;25963;42.694;23.600;2023-09-19T00:36:39;95573.81;;;17.57;85.92
40245;BME280;25963;42.694;23.600;2023-09-19T00:39:05;95582.75;;;17.95;83.73
40245;BME280;25963;42.694;23.600;2023-09-19T00:41:32;95583.75;;;17.40;86.58
40245;BME280;25963;42.694;23.600;2023-09-19T00:43:57;95589.59;;;17.59;85.71
40245;BME280;25963;42.694;23.600;2023-09-19T00:46:23;95583.47;;;17.64;85.12
40245;BME280;25963;42.694;23.600;2023-09-19T00:48:48;95568.94;;;17.49;85.49
40245;BME280;25963;42.694;23.600;2023-09-19T00:51:15;95585.34;;;17.63;85.11
40245;BME280;25963;42.694;23.600;2023-09-19T00:53:45;95586.81;;;17.76;84.16
40245;BME280;25963;42.694;23.600;2023-09-19T00:56:11;95597.22;;;17.50;85.18
40245;BME280;25963;42.694;23.600;2023-09-19T00:58:37;95582.09;;;17.34;86.18
40245;BME280;25963;42.694;23.600;2023-09-19T01:01:03;95596.50;;;17.33;87.67
40245;BME280;25963;42.694;23.600;2023-09-19T01:03:33;95587.44;;;17.34;87.06
40245;BME280;25963;42.694;23.600;2023-09-19T01:05:59;95589.84;;;17.36;87.26
40245;BME280;25963;42.694;23.600;2023-09-19T01:08:25;95579.94;;;17.09;88.42
40245;BME280;25963;42.694;23.600;2023-09-19T01:11:17;95596.25;;;17.13;88.99
40245;BME280;25963;42.694;23.600;2023-09-19T01:13:56;95590.94;;;16.96;89.96
40245;BME280;25963;42.694;23.600;2023-09-19T01:16:42;95586.78;;;16.66;90.96
40245;BME280;25963;42.694;23.600;2023-09-19T01:29:46;95580.41;;;16.84;89.65
40245;BME280;25963;42.694;23.600;2023-09-19T01:32:23;95587.66;;;16.72;90.96
40245;BME280;25963;42.694;23.600;2023-09-19T01:34:55;95577.69;;;17.01;88.83
40245;BME280;25963;42.694;23.600;2023-09-19T01:37:29;95593.22;;;16.87;89.96
40245;BME280;25963;42.694;23.600;2023-09-19T01:40:00;95590.16;;;16.95;89.27
40245;BME280;25963;42.694;23.600;2023-09-19T01:48:05;95568.53;;;16.92;88.34
40245;BME280;25963;42.694;23.600;2023-09-19T01:50:59;95566.16;;;16.95;87.78
40245;BME280;25963;42.694;23.600;2023-09-19T01:53:33;95583.28;;;17.21;86.76
40245;BME280;25963;42.694;23.600;2023-09-19T01:56:01;95563.69;;;17.10;86.04
40245;BME280;25963;42.694;23.600;2023-09-19T01:58:47;95566.78;;;16.80;88.30
40245;BME280;25963;42.694;23.600;2023-09-19T02:01:19;95557.97;;;16.80;88.65
40245;BME280;25963;42.694;23.600;2023-09-19T02:03:46;95554.03;;;16.82;88.13
40245;BME280;25963;42.694;23.600;2023-09-19T02:06:16;95567.13;;;16.50;90.41
40245;BME280;25963;42.694;23.600;2023-09-19T02:08:44;95575.72;;;17.13;87.57
40245;BME280;25963;42.694;23.600;2023-09-19T02:11:11;95560.34;;;16.76;88.54
40245;BME280;25963;42.694;23.600;2023-09-19T02:13:37;95562.44;;;16.57;90.23
40245;BME280;25963;42.694;23.600;2023-09-19T02:16:03;95575.03;;;16.62;89.96
40245;BME280;25963;42.694;23.600;2023-09-19T02:18:30;95585.19;;;16.65;89.91
40245;BME280;25963;42.694;23.600;2023-09-19T02:20:56;95567.09;;;16.67;89.27
40245;BME280;25963;42.694;23.600;2023-09-19T02:23:24;95582.22;;;16.78;88.70
40245;BME280;25963;42.694;23.600;2023-09-19T02:25:56;95574.03;;;16.68;88.98
40245;BME280;25963;42.694;23.600;2023-09-19T02:28:32;95564.50;;;16.16;91.94
40245;BME280;25963;42.694;23.600;2023-09-19T02:30:58;95572.00;;;16.36;90.53
40245;BME280;25963;42.694;23.600;2023-09-19T02:33:24;95584.06;;;16.44;89.61
40245;BME280;25963;42.694;23.600;2023-09-19T02:35:49;95574.66;;;16.36;89.67
40245;BME280;25963;42.694;23.600;2023-09-19T02:38:15;95560.66;;;15.79;93.15
40245;BME280;25963;42.694;23.600;2023-09-19T02:40:43;95559.72;;;16.02;91.50
40245;BME280;25963;42.694;23.600;2023-09-19T02:43:09;95571.41;;;15.84;93.26
40245;BME280;25963;42.694;23.600;2023-09-19T02:45:35;95563.66;;;15.82;93.95
40245;BME280;25963;42.694;23.600;2023-09-19T02:48:00;95556.44;;;15.66;94.57
40245;BME280;25963;42.694;23.600;2023-09-19T02:50:29;95567.22;;;15.88;94.82
40245;BME280;25963;42.694;23.600;2023-09-19T02:52:54;95540.13;;;15.91;93.43
40245;BME280;25963;42.694;23.600;2023-09-19T02:55:20;95573.28;;;16.17;93.43
40245;BME280;25963;42.694;23.600;2023-09-19T02:57:52;95544.22;;;16.32;90.81
40245;BME280;25963;42.694;23.600;2023-09-19T03:00:20;95542.53;;;16.26;91.41
40245;BME280;25963;42.694;23.600;2023-09-19T03:02:55;95536.66;;;16.24;90.97
40245;BME280;25963;42.694;23.600;2023-09-19T03:05:22;95550.53;;;16.26;91.75
40245;BME280;25963;42.694;23.600;2023-09-19T03:07:49;95542.22;;;16.23;92.42
40245;BME280;25963;42.694;23.600;2023-09-19T03:10:16;95512.56;;;16.14;91.25
40245;BME280;25963;42.694;23.600;2023-09-19T03:12:43;95532.22;;;15.79;93.85
40245;BME280;25963;42.694;23.600;2023-09-19T03:15:08;95496.94;;;15.55;94.91
40245;BME280;25963;42.694;23.600;2023-09-19T03:17:34;95518.75;;;16.03;92.49
40245;BME280;25963;42.694;23.600;2023-09-19T03:20:00;95492.31;;;15.17;96.09
40245;BME280;25963;42.694;23.600;2023-09-19T03:22:26;95508.22;;;16.08;92.44
40245;BME280;25963;42.694;23.600;2023-09-19T03:24:52;95514.66;;;15.49;95.99
40245;BME280;25963;42.694;23.600;2023-09-19T03:27:18;95520.72;;;15.73;94.86
40245;BME280;25963;42.694;23.600;2023-09-19T03:29:44;95527.56;;;16.03;92.65
40245;BME280;25963;42.694;23.600;2023-09-19T03:32:09;95512.63;;;15.85;92.65
40245;BME280;25963;42.694;23.600;2023-09-19T03:34:38;95526.06;;;15.62;94.00
40245;BME280;25963;42.694;23.600;2023-09-19T03:37:11;95523.28;;;15.85;93.44
40245;BME280;25963;42.694;23.600;2023-09-19T03:39:36;95521.28;;;15.64;94.48
40245;BME280;25963;42.694;23.600;2023-09-19T03:42:02;95536.75;;;15.79;94.80
40245;BME280;25963;42.694;23.600;2023-09-19T03:44:29;95536.78;;;15.67;95.46
40245;BME280;25963;42.694;23.600;2023-09-19T03:46:56;95521.28;;;15.47;96.52
40245;BME280;25963;42.694;23.600;2023-09-19T03:49:22;95526.94;;;15.50;96.36
40245;BME280;25963;42.694;23.600;2023-09-19T03:51:47;95502.25;;;15.55;95.74
40245;BME280;25963;42.694;23.600;2023-09-19T03:54:13;95519.16;;;15.32;98.79
40245;BME280;25963;42.694;23.600;2023-09-19T03:56:38;95511.63;;;15.41;97.58
40245;BME280;25963;42.694;23.600;2023-09-19T03:59:04;95532.34;;;15.56;97.56
40245;BME280;25963;42.694;23.600;2023-09-19T04:01:30;95505.59;;;15.17;98.65
40245;BME280;25963;42.694;23.600;2023-09-19T04:03:57;95503.91;;;15.56;95.48
40245;BME280;25963;42.694;23.600;2023-09-19T04:06:23;95502.31;;;15.72;94.89
40245;BME280;25963;42.694;23.600;2023-09-19T04:08:48;95516.59;;;15.83;94.41
40245;BME280;25963;42.694;23.600;2023-09-19T04:11:14;95527.78;;;15.85;94.20
40245;BME280;25963;42.694;23.600;2023-09-19T04:13:40;95537.72;;;15.61;95.52
40245;BME280;25963;42.694;23.600;2023-09-19T04:16:05;95530.03;;;15.76;94.64
40245;BME280;25963;42.694;23.600;2023-09-19T04:18:32;95531.13;;;15.18;98.16
40245;BME280;25963;42.694;23.600;2023-09-19T04:20:59;95543.72;;;15.39;97.18
40245;BME280;25963;42.694;23.600;2023-09-19T04:23:28;95560.03;;;15.71;96.42
40245;BME280;25963;42.694;23.600;2023-09-19T04:25:54;95515.50;;;15.50;96.05
40245;BME280;25963;42.694;23.600;2023-09-19T04:28:19;95556.09;;;16.08;93.76
40245;BME280;25963;42.694;23.600;2023-09-19T04:30:45;95553.78;;;15.94;93.74
40245;BME280;25963;42.694;23.600;2023-09-19T04:33:10;95545.47;;;16.08;92.03
40245;BME280;25963;42.694;23.600;2023-09-19T04:35:37;95535.03;;;16.23;91.76
40245;BME280;25963;42.694;23.600;2023-09-19T04:38:04;95550.63;;;16.70;89.27
40245;BME280;25963;42.694;23.600;2023-09-19T04:40:31;95568.41;;;16.81;89.33
40245;BME280;25963;42.694;23.600;2023-09-19T04:42:58;95568.28;;;17.15;88.49
40245;BME280;25963;42.694;23.600;2023-09-19T04:45:24;95570.72;;;17.44;85.99
40245;BME280;25963;42.694;23.600;2023-09-19T04:47:49;95535.75;;;18.27;81.46
40245;BME280;25963;42.694;23.600;2023-09-19T04:50:15;95558.66;;;18.97;76.84
40245;BME280;25963;42.694;23.600;2023-09-19T04:52:42;95554.66;;;19.78;72.93
40245;BME280;25963;42.694;23.600;2023-09-19T04:55:18;95524.69;;;20.01;71.21
40245;BME280;25963;42.694;23.600;2023-09-19T04:57:51;95551.19;;;19.77;71.45
40245;BME280;25963;42.694;23.600;2023-09-19T05:00:21;95543.13;;;18.99;75.02
40245;BME280;25963;42.694;23.600;2023-09-19T05:02:52;95560.94;;;18.78;77.81
40245;BME280;25963;42.694;23.600;2023-09-19T05:05:18;95554.31;;;18.86;79.12
40245;BME280;25963;42.694;23.600;2023-09-19T05:07:44;95542.03;;;18.85;79.51
40245;BME280;25963;42.694;23.600;2023-09-19T05:10:10;95525.06;;;19.22;77.86
40245;BME280;25963;42.694;23.600;2023-09-19T05:12:37;95533.22;;;19.73;73.77
40245;BME280;25963;42.694;23.600;2023-09-19T05:15:03;95515.53;;;20.28;71.76
40245;BME280;25963;42.694;23.600;2023-09-19T05:17:29;95507.50;;;20.33;70.95
40245;BME280;25963;42.694;23.600;2023-09-19T05:19:55;95527.81;;;19.57;75.36
40245;BME280;25963;42.694;23.600;2023-09-19T05:22:20;95529.69;;;19.57;76.22
40245;BME280;25963;42.694;23.600;2023-09-19T05:24:46;95511.03;;;19.77;75.96
40245;BME280;25963;42.694;23.600;2023-09-19T05:27:15;95505.94;;;19.91;74.95
40245;BME280;25963;42.694;23.600;2023-09-19T05:29:42;95511.28;;;20.32;73.37
40245;BME280;25963;42.694;23.600;2023-09-19T05:32:08;95502.94;;;20.54;71.41
40245;BME280;25963;42.694;23.600;2023-09-19T05:34:34;95516.84;;;19.59;75.62
40245;BME280;25963;42.694;23.600;2023-09-19T05:36:59;95527.81;;;19.57;77.76
40245;BME280;25963;42.694;23.600;2023-09-19T05:39:25;95509.66;;;19.70;77.39
40245;BME280;25963;42.694;23.600;2023-09-19T05:41:50;95523.63;;;20.08;75.69
40245;BME280;25963;42.694;23.600;2023-09-19T05:44:16;95506.19;;;20.15;76.04
40245;BME280;25963;42.694;23.600;2023-09-19T05:46:41;95502.47;;;19.91;76.35
40245;BME280;25963;42.694;23.600;2023-09-19T05:49:06;95490.91;;;20.36;73.21
40245;BME280;25963;42.694;23.600;2023-09-19T05:51:32;95513.06;;;20.72;73.08
40245;BME280;25963;42.694;23.600;2023-09-19T05:53:57;95500.75;;;20.71;73.23
40245;BME280;25963;42.694;23.600;2023-09-19T05:56:23;95487.91;;;21.33;71.50
40245;BME280;25963;42.694;23.600;2023-09-19T05:58:49;95503.53;;;21.65;69.51
40245;BME280;25963;42.694;23.600;2023-09-19T06:01:17;95491.31;;;20.84;71.62
40245;BME280;25963;42.694;23.600;2023-09-19T06:03:42;95510.75;;;21.20;71.77
40245;BME280;25963;42.694;23.600;2023-09-19T06:06:08;95512.00;;;21.43;71.44
40245;BME280;25963;42.694;23.600;2023-09-19T06:08:34;95505.09;;;21.27;70.14
40245;BME280;25963;42.694;23.600;2023-09-19T06:11:00;95502.13;;;20.64;74.48
40245;BME280;25963;42.694;23.600;2023-09-19T06:13:28;95490.00;;;21.41;70.59
40245;BME280;25963;42.694;23.600;2023-09-19T06:15:55;95486.94;;;21.09;71.83
40245;BME280;25963;42.694;23.600;2023-09-19T06:18:21;95463.63;;;21.09;72.22
40245;BME280;25963;42.694;23.600;2023-09-19T06:20:47;95477.81;;;21.99;69.43
40245;BME280;25963;42.694;23.600;2023-09-19T06:23:14;95491.09;;;21.80;70.36
40245;BME280;25963;42.694;23.600;2023-09-19T06:25:40;95465.88;;;21.81;70.47
40245;BME280;25963;42.694;23.600;2023-09-19T06:28:06;95483.34;;;21.78;69.42
40245;BME280;25963;42.694;23.600;2023-09-19T06:30:33;95491.88;;;21.85;67.42
40245;BME280;25963;42.694;23.600;2023-09-19T06:33:00;95492.81;;;21.21;69.41
40245;BME280;25963;42.694;23.600;2023-09-19T06:35:26;95469.50;;;21.11;70.32
40245;BME280;25963;42.694;23.600;2023-09-19T06:37:52;95476.59;;;21.41;69.63
40245;BME280;25963;42.694;23.600;2023-09-19T06:40:18;95465.47;;;21.63;68.50
40245;BME280;25963;42.694;23.600;2023-09-19T06:42:46;95475.16;;;21.00;70.20
40245;BME280;25963;42.694;23.600;2023-09-19T06:45:13;95482.09;;;21.16;70.31
40245;BME280;25963;42.694;23.600;2023-09-19T06:47:46;95471.72;;;21.49;70.14
40245;BME280;25963;42.694;23.600;2023-09-19T06:50:15;95464.81;;;21.32;69.99
40245;BME280;25963;42.694;23.600;2023-09-19T06:52:44;95479.38;;;21.21;70.20
40245;BME280;25963;42.694;23.600;2023-09-19T06:55:11;95484.53;;;21.12;69.82
40245;BME280;25963;42.694;23.600;2023-09-19T06:57:39;95467.78;;;21.36;67.09
40245;BME280;25963;42.694;23.600;2023-09-19T07:00:06;95466.25;;;21.64;67.59
40245;BME280;25963;42.694;23.600;2023-09-19T07:02:43;95492.69;;;22.15;65.49
40245;BME280;25963;42.694;23.600;2023-09-19T07:05:09;95486.19;;;22.26;64.07
40245;BME280;25963;42.694;23.600;2023-09-19T07:07:34;95491.75;;;22.01;63.81
40245;BME280;25963;42.694;23.600;2023-09-19T07:10:01;95495.94;;;22.12;65.63
40245;BME280;25963;42.694;23.600;2023-09-19T07:12:27;95493.75;;;22.19;64.16
40245;BME280;25963;42.694;23.600;2023-09-19T07:14:52;95482.69;;;22.26;63.32
40245;BME280;25963;42.694;23.600;2023-09-19T07:17:18;95482.41;;;22.27;60.76
40245;BME280;25963;42.694;23.600;2023-09-19T07:19:44;95489.53;;;22.66;61.00
40245;BME280;25963;42.694;23.600;2023-09-19T07:22:10;95490.91;;;22.64;58.88
40245;BME280;25963;42.694;23.600;2023-09-19T07:24:36;95501.13;;;23.34;57.81
40245;BME280;25963;42.694;23.600;2023-09-19T07:27:02;95486.72;;;23.24;58.92
40245;BME280;25963;42.694;23.600;2023-09-19T07:29:28;95497.66;;;22.85;58.05
40245;BME280;25963;42.694;23.600;2023-09-19T07:31:53;95479.31;;;23.35;57.66
40245;BME280;25963;42.694;23.600;2023-09-19T07:34:19;95469.69;;;22.62;60.06
40245;BME280;25963;42.694;23.600;2023-09-19T07:36:47;95463.03;;;22.54;59.78
40245;BME280;25963;42.694;23.600;2023-09-19T07:39:13;95463.63;;;22.22;60.23
40245;BME280;25963;42.694;23.600;2023-09-19T07:41:38;95486.00;;;22.47;61.64
40245;BME280;25963;42.694;23.600;2023-09-19T07:44:04;95483.06;;;22.91;59.16
40245;BME280;25963;42.694;23.600;2023-09-19T07:46:30;95480.84;;;23.60;58.02
40245;BME280;25963;42.694;23.600;2023-09-19T07:48:57;95466.06;;;23.39;56.57
40245;BME280;25963;42.694;23.600;2023-09-19T07:51:22;95468.59;;;23.11;58.15
40245;BME280;25963;42.694;23.600;2023-09-19T07:53:50;95475.06;;;23.48;56.81
40245;BME280;25963;42.694;23.600;2023-09-19T07:56:16;95453.66;;;23.00;55.71
40245;BME280;25963;42.694;23.600;2023-09-19T07:58:43;95464.50;;;23.76;55.74
40245;BME280;25963;42.694;23.600;2023-09-19T08:01:10;95472.66;;;24.03;54.36
40245;BME280;25963;42.694;23.600;2023-09-19T08:03:36;95470.41;;;24.24;51.16
40245;BME280;25963;42.694;23.600;2023-09-19T08:06:06;95482.91;;;24.34;50.73
40245;BME280;25963;42.694;23.600;2023-09-19T08:08:32;95446.63;;;24.12;52.80
40245;BME280;25963;42.694;23.600;2023-09-19T08:11:03;95478.09;;;23.84;52.94
40245;BME280;25963;42.694;23.600;2023-09-19T08:13:35;95479.38;;;24.20;53.07
40245;BME280;25963;42.694;23.600;2023-09-19T08:16:01;95484.28;;;24.92;50.72
40245;BME280;25963;42.694;23.600;2023-09-19T08:18:26;95477.09;;;24.59;50.10
40245;BME280;25963;42.694;23.600;2023-09-19T08:20:55;95475.88;;;24.52;50.57
40245;BME280;25963;42.694;23.600;2023-09-19T08:23:20;95464.00;;;25.22;49.44
40245;BME280;25963;42.694;23.600;2023-09-19T08:25:47;95475.25;;;24.41;49.45
40245;BME280;25963;42.694;23.600;2023-09-19T08:28:12;95460.81;;;24.92;49.62
40245;BME280;25963;42.694;23.600;2023-09-19T08:30:43;95473.06;;;25.76;47.43
40245;BME280;25963;42.694;23.600;2023-09-19T08:33:08;95459.66;;;25.71;47.59
40245;BME280;25963;42.694;23.600;2023-09-19T08:35:34;95467.78;;;25.21;48.13
40245;BME280;25963;42.694;23.600;2023-09-19T08:38:00;95459.22;;;25.19;48.86
40245;BME280;25963;42.694;23.600;2023-09-19T08:40:30;95460.78;;;25.06;47.76
40245;BME280;25963;42.694;23.600;2023-09-19T08:42:59;95451.84;;;25.47;47.15
40245;BME280;25963;42.694;23.600;2023-09-19T08:45:26;95460.81;;;25.56;46.38
40245;BME280;25963;42.694;23.600;2023-09-19T08:50:31;95452.59;;;25.61;46.50
40245;BME280;25963;42.694;23.600;2023-09-19T08:53:06;95448.72;;;25.17;48.96
40245;BME280;25963;42.694;23.600;2023-09-19T08:55:36;95436.03;;;24.90;48.59
40245;BME280;25963;42.694;23.600;2023-09-19T08:58:04;95444.84;;;25.46;46.97
40245;BME280;25963;42.694;23.600;2023-09-19T09:00:31;95451.00;;;26.05;46.30
40245;BME280;25963;42.694;23.600;2023-09-19T09:02:58;95450.88;;;25.43;46.81
40245;BME280;25963;42.694;23.600;2023-09-19T09:05:24;95417.06;;;25.90;45.49
40245;BME280;25963;42.694;23.600;2023-09-19T09:07:52;95429.94;;;25.71;46.47
40245;BME280;25963;42.694;23.600;2023-09-19T09:10:21;95440.75;;;26.47;45.10
40245;BME280;25963;42.694;23.600;2023-09-19T09:12:53;95437.47;;;26.99;44.13
40245;BME280;25963;42.694;23.600;2023-09-19T09:15:22;95442.06;;;26.90;44.18
40245;BME280;25963;42.694;23.600;2023-09-19T09:17:51;95439.56;;;27.11;42.55
40245;BME280;25963;42.694;23.600;2023-09-19T09:20:20;95418.88;;;27.58;41.23
40245;BME280;25963;42.694;23.600;2023-09-19T09:22:56;95428.63;;;26.76;42.37
40245;BME280;25963;42.694;23.600;2023-09-19T09:25:52;95433.16;;;26.98;41.94
40245;BME280;25963;42.694;23.600;2023-09-19T09:28:24;95422.53;;;27.19;43.24
40245;BME280;25963;42.694;23.600;2023-09-19T09:30:50;95422.56;;;27.27;41.75
40245;BME280;25963;42.694;23.600;2023-09-19T09:33:16;95411.38;;;28.07;41.03
40245;BME280;25963;42.694;23.600;2023-09-19T09:38:20;95405.66;;;28.00;41.86
40245;BME280;25963;42.694;23.600;2023-09-19T09:40:50;95404.22;;;27.94;43.08
40245;BME280;25963;42.694;23.600;2023-09-19T09:43:35;95399.28;;;27.87;40.85
40245;BME280;25963;42.694;23.600;2023-09-19T09:46:11;95397.00;;;28.15;39.75
40245;BME280;25963;42.694;23.600;2023-09-19T09:48:58;95380.31;;;27.09;41.82
40245;BME280;25963;42.694;23.600;2023-09-19T09:51:43;95409.09;;;26.88;42.82
40245;BME280;25963;42.694;23.600;2023-09-19T09:54:23;95405.03;;;27.60;41.40
40245;BME280;25963;42.694;23.600;2023-09-19T09:56:59;95391.81;;;28.49;41.09
40245;BME280;25963;42.694;23.600;2023-09-19T10:02:26;95376.63;;;28.39;38.47
40245;BME280;25963;42.694;23.600;2023-09-19T10:04:55;95389.09;;;28.40;40.02
40245;BME280;25963;42.694;23.600;2023-09-19T10:07:31;95376.59;;;29.16;38.06
40245;BME280;25963;42.694;23.600;2023-09-19T10:10:41;95369.84;;;29.22;38.00
40245;BME280;25963;42.694;23.600;2023-09-19T10:13:11;95372.22;;;29.02;38.14
40245;BME280;25963;42.694;23.600;2023-09-19T10:15:46;95385.31;;;29.00;37.40
40245;BME280;25963;42.694;23.600;2023-09-19T10:18:26;95377.13;;;29.30;36.69
40245;BME280;25963;42.694;23.600;2023-09-19T10:20:53;95380.38;;;29.02;37.35
40245;BME280;25963;42.694;23.600;2023-09-19T10:23:21;95380.94;;;29.92;37.50
40245;BME280;25963;42.694;23.600;2023-09-19T10:25:52;95376.34;;;30.17;36.76
40245;BME280;25963;42.694;23.600;2023-09-19T10:28:18;95355.75;;;30.28;37.56
40245;BME280;25963;42.694;23.600;2023-09-19T10:30:51;95361.66;;;30.67;37.57
40245;BME280;25963;42.694;23.600;2023-09-19T10:33:21;95336.94;;;30.23;35.11
40245;BME280;25963;42.694;23.600;2023-09-19T10:35:51;95351.22;;;30.32;35.51
40245;BME280;25963;42.694;23.600;2023-09-19T10:38:23;95353.84;;;30.41;36.47
40245;BME280;25963;42.694;23.600;2023-09-19T10:40:50;95349.84;;;30.63;35.27
40245;BME280;25963;42.694;23.600;2023-09-19T10:43:20;95333.78;;;30.58;35.19
40245;BME280;25963;42.694;23.600;2023-09-19T10:45:47;95359.50;;;31.50;35.38
40245;BME280;25963;42.694;23.600;2023-09-19T10:48:17;95351.81;;;31.40;32.92
40245;BME280;25963;42.694;23.600;2023-09-19T10:53:24;95330.16;;;29.84;35.62
40245;BME280;25963;42.694;23.600;2023-09-19T10:55:55;95323.13;;;30.40;34.91
40245;BME280;25963;42.694;23.600;2023-09-19T10:58:28;95336.16;;;30.22;34.71
40245;BME280;25963;42.694;23.600;2023-09-19T11:00:58;95341.59;;;30.22;35.34
40245;BME280;25963;42.694;23.600;2023-09-19T11:03:27;95319.03;;;30.46;34.64
40245;BME280;25963;42.694;23.600;2023-09-19T11:30:45;95329.00;;;30.67;33.78
40245;BME280;25963;42.694;23.600;2023-09-19T11:36:13;95286.22;;;30.18;34.43
40245;BME280;25963;42.694;23.600;2023-09-19T11:49:18;95288.56;;;31.06;35.10
40245;BME280;25963;42.694;23.600;2023-09-19T11:51:50;95270.00;;;30.71;34.18
40245;BME280;25963;42.694;23.600;2023-09-19T11:54:17;95264.56;;;31.24;33.24
40245;BME280;25963;42.694;23.600;2023-09-19T11:56:54;95242.47;;;31.41;33.60
40245;BME280;25963;42.694;23.600;2023-09-19T11:59:30;95246.03;;;31.17;32.67
40245;BME280;25963;42.694;23.600;2023-09-19T12:01:57;95250.00;;;30.91;33.18
40245;BME280;25963;42.694;23.600;2023-09-19T12:07:10;95260.41;;;31.42;32.76
40245;BME280;25963;42.694;23.600;2023-09-19T12:09:40;95255.69;;;30.74;33.12
40245;BME280;25963;42.694;23.600;2023-09-19T12:12:19;95257.78;;;30.03;34.87
40245;BME280;25963;42.694;23.600;2023-09-19T12:14:50;95241.44;;;30.65;34.92
40245;BME280;25963;42.694;23.600;2023-09-19T12:17:19;95223.78;;;30.46;33.83
40245;BME280;25963;42.694;23.600;2023-09-19T12:19:52;95248.31;;;30.75;33.91
40245;BME280;25963;42.694;23.600;2023-09-19T12:22:18;95234.97;;;31.10;33.88
40245;BME280;25963;42.694;23.600;2023-09-19T12:24:45;95253.56;;;31.48;32.77
40245;BME280;25963;42.694;23.600;2023-09-19T12:27:12;95231.44;;;31.37;33.91
40245;BME280;25963;42.694;23.600;2023-09-19T12:29:48;95237.81;;;31.57;31.75
40245;BME280;25963;42.694;23.600;2023-09-19T12:32:34;95216.53;;;31.47;33.29
40245;BME280;25963;42.694;23.600;2023-09-19T12:35:00;95218.13;;;31.64;31.99
40245;BME280;25963;42.694;23.600;2023-09-19T12:37:36;95224.72;;;31.19;32.61
40245;BME280;25963;42.694;23.600;2023-09-19T12:40:08;95236.81;;;31.06;33.55
40245;BME280;25963;42.694;23.600;2023-09-19T12:42:48;95199.28;;;30.46;34.08
40245;BME280;25963;42.694;23.600;2023-09-19T12:45:14;95215.78;;;30.78;34.08
40245;BME280;25963;42.694;23.600;2023-09-19T12:48:19;95224.81;;;31.51;33.53
40245;BME280;25963;42.694;23.600;2023-09-19T12:51:09;95190.84;;;31.04;32.90
40245;BME280;25963;42.694;23.600;2023-09-19T12:53:42;95210.94;;;31.28;32.72
40245;BME280;25963;42.694;23.600;2023-09-19T12:56:09;95215.09;;;31.37;32.41
40245;BME280;25963;42.694;23.600;2023-09-19T13:02:06;95174.72;;;31.27;32.33
40245;BME280;25963;42.694;23.600;2023-09-19T13:04:32;95197.63;;;31.38;31.61
40245;BME280;25963;42.694;23.600;2023-09-19T13:06:59;95189.03;;;31.68;33.53
40245;BME280;25963;42.694;23.600;2023-09-19T13:09:26;95199.91;;;31.52;31.58
40245;BME280;25963;42.694;23.600;2023-09-19T13:12:04;95189.81;;;31.84;31.76
40245;BME280;25963;42.694;23.600;2023-09-19T13:14:30;95193.31;;;31.37;31.26
40245;BME280;25963;42.694;23.600;2023-09-19T13:17:06;95206.25;;;31.56;32.74
40245;BME280;25963;42.694;23.600;2023-09-19T13:19:44;95205.09;;;30.85;33.62
40245;BME280;25963;42.694;23.600;2023-09-19T13:22:42;95199.38;;;30.50;33.12
40245;BME280;25963;42.694;23.600;2023-09-19T13:25:09;95182.19;;;30.34;33.75
40245;BME280;25963;42.694;23.600;2023-09-19T13:27:44;95161.03;;;30.96;32.53
40245;BME280;25963;42.694;23.600;2023-09-19T13:30:11;95174.78;;;31.15;32.45
40245;BME280;25963;42.694;23.600;2023-09-19T13:32:37;95176.34;;;31.00;31.72
40245;BME280;25963;42.694;23.600;2023-09-19T13:35:04;95169.69;;;30.85;31.77
40245;BME280;25963;42.694;23.600;2023-09-19T13:37:31;95168.00;;;30.40;33.99
40245;BME280;25963;42.694;23.600;2023-09-19T13:39:56;95156.59;;;30.22;33.86
40245;BME280;25963;42.694;23.600;2023-09-19T13:42:24;95162.84;;;30.51;34.23
40245;BME280;25963;42.694;23.600;2023-09-19T13:44:50;95156.78;;;30.82;33.83
40245;BME280;25963;42.694;23.600;2023-09-19T13:47:16;95188.44;;;30.22;34.94
40245;BME280;25963;42.694;23.600;2023-09-19T13:49:42;95172.34;;;29.80;34.72
40245;BME280;25963;42.694;23.600;2023-09-19T13:52:09;95171.66;;;30.32;34.13
40245;BME280;25963;42.694;23.600;2023-09-19T13:54:34;95155.75;;;30.46;34.06
40245;BME280;25963;42.694;23.600;2023-09-19T13:57:00;95167.28;;;30.56;34.14
40245;BME280;25963;42.694;23.600;2023-09-19T13:59:26;95171.22;;;29.93;34.26
40245;BME280;25963;42.694;23.600;2023-09-19T14:01:54;95162.25;;;30.05;34.12
40245;BME280;25963;42.694;23.600;2023-09-19T14:04:20;95165.56;;;30.63;33.56
40245;BME280;25963;42.694;23.600;2023-09-19T14:06:47;95139.09;;;30.76;33.29
40245;BME280;25963;42.694;23.600;2023-09-19T14:09:12;95167.34;;;30.19;34.33
40245;BME280;25963;42.694;23.600;2023-09-19T14:11:39;95124.84;;;30.27;33.84